createdAt,value
2022-12-14T00:00:11.861Z,38.20
2022-12-14T00:01:20.428Z,38.00
2022-12-14T00:02:22.762Z,38.30
2022-12-14T00:03:25.392Z,38.70
2022-12-14T00:04:27.787Z,38.60
2022-12-14T00:05:30.034Z,38.60
2022-12-14T00:06:33.508Z,38.80
2022-12-14T00:07:35.811Z,38.70
2022-12-14T00:08:41.719Z,38.40
2022-12-14T00:09:45.663Z,38.00
2022-12-14T00:10:47.875Z,38.70
2022-12-14T00:11:50.142Z,38.50
2022-12-14T00:12:52.448Z,38.30
2022-12-14T00:13:57.521Z,38.90
2022-12-14T00:14:59.807Z,35.20
2022-12-14T00:16:17.365Z,33.40
2022-12-14T00:17:19.777Z,34.20
2022-12-14T00:18:22.716Z,36.90
2022-12-14T00:19:25.225Z,37.60
2022-12-14T00:20:27.502Z,38.60
2022-12-14T00:21:30.212Z,39.60
2022-12-14T00:22:32.571Z,40.20
2022-12-14T00:23:38.948Z,40.30
2022-12-14T00:24:41.871Z,40.60
2022-12-14T00:25:44.159Z,40.60
2022-12-14T00:26:51.337Z,40.60
2022-12-14T00:27:54.386Z,40.70
2022-12-14T00:28:57.438Z,40.80
2022-12-14T00:29:59.972Z,40.80
2022-12-14T00:31:02.991Z,41.00
2022-12-14T00:32:05.966Z,36.10
2022-12-14T00:33:08.439Z,35.30
2022-12-14T00:34:10.979Z,36.80
2022-12-14T00:35:17.121Z,35.80
2022-12-14T00:36:19.838Z,37.40
2022-12-14T00:37:22.112Z,37.90
2022-12-14T00:38:24.859Z,39.80
2022-12-14T00:39:27.449Z,40.60
2022-12-14T00:40:29.912Z,40.70
2022-12-14T00:41:32.202Z,39.70
2022-12-14T00:42:34.857Z,41.00
2022-12-14T00:43:37.499Z,40.40
2022-12-14T00:44:40.612Z,40.90
2022-12-14T00:45:46.409Z,40.80
2022-12-14T00:46:48.748Z,40.80
2022-12-14T00:47:51.018Z,40.90
2022-12-14T00:48:53.366Z,40.90
2022-12-14T00:49:55.636Z,40.90
2022-12-14T00:50:57.972Z,40.80
2022-12-14T00:52:00.533Z,41.00
2022-12-14T00:53:02.954Z,41.00
2022-12-14T00:54:05.575Z,36.10
2022-12-14T00:55:08.258Z,32.60
2022-12-14T00:56:11.456Z,33.10
2022-12-14T00:57:13.838Z,37.70
2022-12-14T00:58:17.910Z,35.80
2022-12-14T00:59:25.662Z,36.30
2022-12-14T01:00:32.790Z,37.20
2022-12-14T01:01:35.755Z,37.60
2022-12-14T01:02:38.180Z,38.00
2022-12-14T01:03:40.626Z,38.10
2022-12-14T01:04:42.916Z,38.20
2022-12-14T01:05:49.086Z,37.90
2022-12-14T01:06:53.876Z,37.50
2022-12-14T01:07:56.792Z,37.90
2022-12-14T01:08:59.054Z,37.90
2022-12-14T01:10:01.380Z,37.70
2022-12-14T01:11:08.325Z,37.70
2022-12-14T01:12:10.701Z,38.00
2022-12-14T01:13:13.015Z,37.80
2022-12-14T01:14:18.467Z,38.80
2022-12-14T01:15:20.813Z,38.00
2022-12-14T01:16:23.308Z,38.20
2022-12-14T01:17:25.609Z,38.20
2022-12-14T01:18:27.937Z,39.60
2022-12-14T01:19:30.360Z,38.10
2022-12-14T01:20:32.666Z,39.40
2022-12-14T01:21:35.154Z,35.90
2022-12-14T01:22:37.945Z,37.50
2022-12-14T01:23:40.285Z,35.50
2022-12-14T01:24:44.348Z,34.90
2022-12-14T01:25:48.946Z,35.60
2022-12-14T01:26:51.787Z,37.10
2022-12-14T01:27:54.152Z,37.80
2022-12-14T01:28:58.622Z,39.60
2022-12-14T01:30:00.972Z,40.20
2022-12-14T01:31:10.228Z,40.70
2022-12-14T01:32:12.727Z,39.20
2022-12-14T01:33:15.290Z,40.60
2022-12-14T01:34:17.670Z,41.30
2022-12-14T01:35:19.930Z,41.60
2022-12-14T01:36:25.748Z,41.40
2022-12-14T01:37:28.787Z,41.20
2022-12-14T01:38:31.576Z,41.30
2022-12-14T01:39:33.837Z,41.30
2022-12-14T01:40:36.194Z,41.40
2022-12-14T01:41:41.573Z,41.50
2022-12-14T01:42:43.860Z,35.00
2022-12-14T01:43:50.511Z,36.20
2022-12-14T01:44:56.074Z,36.60
2022-12-14T01:45:59.145Z,38.40
2022-12-14T01:47:17.356Z,40.00
2022-12-14T01:48:19.773Z,40.40
2022-12-14T01:49:38.146Z,40.50
2022-12-14T01:50:45.412Z,40.50
2022-12-14T01:51:56.129Z,40.50
2022-12-14T01:53:06.365Z,40.40
2022-12-14T01:54:12.208Z,40.40
2022-12-14T01:55:20.236Z,40.70
2022-12-14T01:56:22.828Z,40.70
2022-12-14T01:57:40.246Z,40.70
2022-12-14T01:58:42.558Z,40.60
2022-12-14T01:59:46.730Z,40.50
2022-12-14T02:00:53.033Z,40.60
2022-12-14T02:01:57.360Z,40.60
2022-12-14T02:03:08.413Z,41.00
2022-12-14T02:04:13.051Z,40.70
2022-12-14T02:05:17.273Z,40.80
2022-12-14T02:06:30.305Z,40.70
2022-12-14T02:07:33.156Z,40.70
2022-12-14T02:08:36.901Z,40.70
2022-12-14T02:09:41.898Z,40.70
2022-12-14T02:10:46.377Z,40.90
2022-12-14T02:12:09.650Z,41.00
2022-12-14T02:13:17.600Z,40.90
2022-12-14T02:14:19.894Z,40.90
2022-12-14T02:15:22.224Z,40.90
2022-12-14T02:16:24.609Z,41.10
2022-12-14T02:17:28.911Z,41.00
2022-12-14T02:18:32.250Z,41.10
2022-12-14T02:19:35.906Z,41.10
2022-12-14T02:21:19.804Z,41.10
2022-12-14T02:22:53.529Z,41.30
2022-12-14T02:24:07.456Z,41.20
2022-12-14T02:25:28.331Z,41.20
2022-12-14T02:26:57.214Z,41.30
2022-12-14T02:28:20.868Z,41.40
2022-12-14T02:29:26.225Z,41.30
2022-12-14T02:30:35.044Z,41.40
2022-12-14T02:32:15.149Z,41.40
2022-12-14T02:33:48.117Z,41.40
2022-12-14T02:34:57.273Z,39.00
2022-12-14T02:36:03.375Z,39.30
2022-12-14T02:37:18.256Z,38.60
2022-12-14T02:38:26.019Z,37.40
2022-12-14T02:39:45.677Z,37.60
2022-12-14T02:41:12.590Z,39.70
2022-12-14T02:42:22.938Z,40.60
2022-12-14T02:43:38.948Z,41.00
2022-12-14T02:45:11.520Z,41.10
2022-12-14T02:46:47.334Z,41.20
2022-12-14T02:48:07.004Z,41.20
2022-12-14T02:49:49.157Z,41.30
2022-12-14T02:51:03.835Z,41.30
2022-12-14T02:52:24.216Z,41.20
2022-12-14T02:53:36.286Z,41.30
2022-12-14T02:54:55.746Z,41.20
2022-12-14T02:56:03.483Z,41.20
2022-12-14T02:57:37.102Z,41.30
2022-12-14T02:58:50.387Z,41.30
2022-12-14T02:59:56.470Z,41.20
2022-12-14T03:00:59.866Z,41.30
2022-12-14T03:02:04.678Z,41.30
2022-12-14T03:03:07.683Z,41.20
2022-12-14T03:04:10.440Z,41.20
2022-12-14T03:05:12.829Z,41.30
2022-12-14T03:06:26.634Z,41.10
2022-12-14T03:07:52.609Z,41.10
2022-12-14T03:09:11.114Z,41.20
2022-12-14T03:10:25.588Z,41.10
2022-12-14T03:11:42.238Z,41.10
2022-12-14T03:12:50.650Z,41.10
2022-12-14T03:14:08.045Z,41.10
2022-12-14T03:15:12.580Z,41.20
2022-12-14T03:16:19.695Z,41.60
2022-12-14T03:17:27.466Z,41.20
2022-12-14T03:18:38.928Z,41.20
2022-12-14T03:19:47.349Z,41.20
2022-12-14T03:20:55.077Z,41.20
2022-12-14T03:22:01.601Z,41.20
2022-12-14T03:23:09.032Z,41.20
2022-12-14T03:24:16.925Z,41.20
2022-12-14T03:25:29.651Z,41.20
2022-12-14T03:26:47.330Z,41.20
2022-12-14T03:27:55.002Z,41.20
2022-12-14T03:29:09.454Z,41.30
2022-12-14T03:30:31.638Z,41.20
2022-12-14T03:32:02.222Z,41.80
2022-12-14T03:33:09.828Z,41.30
2022-12-14T03:34:15.065Z,41.30
2022-12-14T03:35:28.858Z,41.40
2022-12-14T03:36:42.391Z,41.40
2022-12-14T03:38:02.511Z,41.20
2022-12-14T03:39:10.453Z,41.20
2022-12-14T03:40:14.715Z,41.50
2022-12-14T03:41:31.262Z,41.40
2022-12-14T03:42:42.155Z,41.30
2022-12-14T03:44:09.665Z,41.30
2022-12-14T03:45:29.101Z,41.40
2022-12-14T03:46:44.153Z,41.40
2022-12-14T03:48:01.240Z,41.40
2022-12-14T03:49:36.571Z,41.90
2022-12-14T03:50:41.621Z,41.30
2022-12-14T03:52:12.198Z,41.50
2022-12-14T03:53:40.156Z,38.90
2022-12-14T03:55:17.408Z,34.10
2022-12-14T03:56:38.016Z,36.50
2022-12-14T03:57:43.201Z,34.60
2022-12-14T03:59:06.803Z,38.60
2022-12-14T04:00:16.669Z,37.90
2022-12-14T04:01:49.301Z,34.80
2022-12-14T04:03:14.843Z,37.90
2022-12-14T04:04:34.321Z,38.90
2022-12-14T04:05:59.050Z,40.80
2022-12-14T04:07:19.212Z,41.40
2022-12-14T04:08:48.692Z,41.50
2022-12-14T04:10:53.699Z,41.60
2022-12-14T04:12:47.947Z,41.60
2022-12-14T04:14:36.643Z,41.60
2022-12-14T04:15:58.724Z,41.60
2022-12-14T04:17:26.433Z,41.40
2022-12-14T04:18:59.891Z,41.40
2022-12-14T04:20:16.834Z,41.40
2022-12-14T04:21:34.609Z,41.40
2022-12-14T04:22:54.188Z,41.30
2022-12-14T04:24:19.815Z,41.30
2022-12-14T04:25:50.490Z,41.50
2022-12-14T04:26:59.906Z,41.30
2022-12-14T04:28:45.001Z,41.30
2022-12-14T04:29:56.350Z,41.30
2022-12-14T04:31:01.510Z,41.30
2022-12-14T04:32:13.899Z,41.70
2022-12-14T04:33:35.709Z,41.30
2022-12-14T04:34:41.105Z,41.20
2022-12-14T04:35:44.003Z,41.30
2022-12-14T04:36:55.959Z,41.20
2022-12-14T04:38:32.169Z,41.20
2022-12-14T04:40:02.102Z,41.30
2022-12-14T04:41:08.950Z,41.30
2022-12-14T04:42:13.481Z,41.20
2022-12-14T04:43:21.244Z,41.30
2022-12-14T04:44:32.241Z,33.30
2022-12-14T04:45:40.831Z,32.10
2022-12-14T04:46:45.877Z,34.20
2022-12-14T04:47:59.146Z,35.40
2022-12-14T04:49:10.241Z,37.40
2022-12-14T04:50:25.540Z,38.80
2022-12-14T04:51:32.803Z,40.80
2022-12-14T04:52:45.913Z,41.20
2022-12-14T04:53:52.295Z,41.20
2022-12-14T04:55:22.401Z,41.10
2022-12-14T04:56:35.471Z,41.80
2022-12-14T04:57:51.538Z,42.20
2022-12-14T04:58:54.581Z,42.30
2022-12-14T04:59:58.313Z,42.40
2022-12-14T05:01:22.528Z,42.40
2022-12-14T05:02:35.315Z,41.30
2022-12-14T05:03:55.983Z,41.80
2022-12-14T05:05:28.537Z,41.60
2022-12-14T05:06:41.661Z,41.70
2022-12-14T05:07:59.677Z,41.40
2022-12-14T05:09:28.327Z,41.40
2022-12-14T05:10:38.137Z,41.40
2022-12-14T05:11:54.061Z,41.60
2022-12-14T05:13:04.770Z,41.60
2022-12-14T05:14:10.904Z,41.70
2022-12-14T05:15:18.475Z,41.60
2022-12-14T05:16:23.436Z,41.60
2022-12-14T05:17:26.701Z,41.60
2022-12-14T05:18:29.109Z,41.60
2022-12-14T05:19:31.557Z,41.70
2022-12-14T05:20:33.883Z,41.60
2022-12-14T05:21:49.093Z,41.60
2022-12-14T05:22:51.550Z,41.60
2022-12-14T05:23:53.795Z,41.50
2022-12-14T05:24:56.178Z,41.50
2022-12-14T05:25:58.469Z,42.00
2022-12-14T05:27:00.808Z,41.60
2022-12-14T05:28:03.336Z,41.60
2022-12-14T05:29:05.833Z,41.60
2022-12-14T05:30:09.066Z,41.70
2022-12-14T05:31:11.393Z,41.60
2022-12-14T05:32:13.907Z,41.70
2022-12-14T05:33:19.699Z,41.50
2022-12-14T05:34:22.676Z,41.60
2022-12-14T05:35:25.299Z,41.30
2022-12-14T05:36:27.832Z,41.70
2022-12-14T05:37:30.216Z,41.60
2022-12-14T05:38:32.481Z,41.40
2022-12-14T05:39:34.789Z,41.60
2022-12-14T05:40:37.037Z,41.70
2022-12-14T05:41:39.264Z,41.60
2022-12-14T05:42:45.325Z,41.80
2022-12-14T05:43:49.869Z,41.70
2022-12-14T05:44:52.125Z,41.70
2022-12-14T05:46:01.369Z,41.60
2022-12-14T05:47:03.939Z,41.60
2022-12-14T05:48:06.381Z,41.80
2022-12-14T05:49:08.812Z,41.70
2022-12-14T05:50:11.300Z,41.80
2022-12-14T05:51:14.389Z,41.70
2022-12-14T05:52:17.374Z,41.70
2022-12-14T05:53:19.804Z,41.50
2022-12-14T05:54:22.274Z,41.60
2022-12-14T05:55:25.016Z,41.50
2022-12-14T05:56:27.296Z,41.70
2022-12-14T05:57:30.616Z,41.70
2022-12-14T05:58:33.882Z,41.70
2022-12-14T05:59:36.238Z,41.40
2022-12-14T06:00:38.932Z,41.40
2022-12-14T06:01:49.437Z,41.20
2022-12-14T06:02:55.399Z,41.20
2022-12-14T06:03:59.026Z,41.10
2022-12-14T06:05:01.284Z,39.60
2022-12-14T06:06:06.197Z,36.20
2022-12-14T06:07:11.525Z,36.30
2022-12-14T06:08:13.829Z,36.80
2022-12-14T06:09:17.012Z,41.00
2022-12-14T06:10:19.334Z,41.30
2022-12-14T06:11:23.581Z,42.60
2022-12-14T06:12:26.220Z,42.60
2022-12-14T06:13:29.275Z,42.30
2022-12-14T06:14:32.098Z,42.40
2022-12-14T06:15:34.696Z,42.20
2022-12-14T06:16:40.628Z,42.10
2022-12-14T06:17:44.628Z,42.10
2022-12-14T06:18:49.746Z,42.20
2022-12-14T06:19:52.379Z,42.60
2022-12-14T06:20:56.693Z,42.30
2022-12-14T06:21:59.127Z,42.50
2022-12-14T06:23:01.524Z,42.90
2022-12-14T06:24:05.022Z,42.20
2022-12-14T06:25:08.401Z,42.80
2022-12-14T06:26:11.457Z,42.50
2022-12-14T06:27:13.768Z,42.70
2022-12-14T06:28:16.037Z,42.40
2022-12-14T06:29:19.550Z,42.90
2022-12-14T06:30:21.900Z,43.70
2022-12-14T06:31:32.603Z,44.10
2022-12-14T06:32:34.988Z,43.50
2022-12-14T06:33:37.313Z,41.60
2022-12-14T06:34:42.225Z,40.70
2022-12-14T06:35:45.892Z,40.70
2022-12-14T06:36:48.186Z,42.50
2022-12-14T06:37:50.509Z,42.90
2022-12-14T06:38:56.586Z,42.80
2022-12-14T06:39:58.870Z,42.80
2022-12-14T06:41:01.405Z,43.20
2022-12-14T06:42:03.793Z,43.80
2022-12-14T06:43:06.811Z,43.80
2022-12-14T06:44:13.100Z,44.00
2022-12-14T06:45:15.359Z,44.10
2022-12-14T06:46:20.264Z,43.20
2022-12-14T06:47:22.592Z,42.70
2022-12-14T06:48:24.925Z,42.80
2022-12-14T06:49:27.529Z,43.50
2022-12-14T06:50:30.196Z,43.40
2022-12-14T06:51:37.823Z,43.60
2022-12-14T06:52:40.521Z,43.60
2022-12-14T06:53:42.865Z,43.70
2022-12-14T06:54:45.207Z,43.80
2022-12-14T06:55:49.214Z,43.60
2022-12-14T06:56:51.708Z,43.80
2022-12-14T06:57:55.252Z,43.80
2022-12-14T06:58:57.779Z,43.80
2022-12-14T07:00:00.174Z,43.50
2022-12-14T07:01:04.909Z,43.70
2022-12-14T07:02:08.979Z,43.70
2022-12-14T07:03:11.509Z,43.80
2022-12-14T07:04:16.123Z,43.70
2022-12-14T07:05:18.517Z,43.60
2022-12-14T07:06:22.066Z,43.50
2022-12-14T07:07:24.453Z,43.50
2022-12-14T07:08:28.242Z,43.50
2022-12-14T07:09:30.553Z,43.50
2022-12-14T07:10:34.161Z,43.60
2022-12-14T07:11:36.510Z,44.00
2022-12-14T07:12:39.097Z,43.50
2022-12-14T07:13:41.844Z,43.40
2022-12-14T07:14:44.148Z,43.40
2022-12-14T07:15:52.770Z,43.40
2022-12-14T07:16:55.076Z,43.40
2022-12-14T07:17:57.386Z,43.30
2022-12-14T07:19:00.514Z,43.30
2022-12-14T07:20:04.286Z,43.30
2022-12-14T07:21:11.918Z,43.30
2022-12-14T07:22:14.384Z,43.10
2022-12-14T07:23:16.759Z,43.20
2022-12-14T07:24:19.205Z,43.30
2022-12-14T07:25:21.757Z,43.30
2022-12-14T07:26:27.402Z,43.30
2022-12-14T07:27:29.790Z,43.20
2022-12-14T07:28:32.481Z,43.40
2022-12-14T07:29:35.181Z,43.40
2022-12-14T07:30:37.753Z,43.40
2022-12-14T07:31:40.208Z,43.40
2022-12-14T07:32:42.539Z,43.30
2022-12-14T07:33:45.020Z,43.30
2022-12-14T07:34:48.021Z,43.30
2022-12-14T07:35:50.741Z,43.30
2022-12-14T07:36:53.564Z,43.40
2022-12-14T07:37:55.982Z,43.40
2022-12-14T07:38:58.433Z,43.40
2022-12-14T07:40:00.839Z,43.40
2022-12-14T07:41:12.164Z,43.40
2022-12-14T07:42:14.365Z,43.30
2022-12-14T07:43:22.327Z,43.30
2022-12-14T07:44:24.699Z,43.30
2022-12-14T07:45:27.020Z,43.30
2022-12-14T07:46:32.235Z,43.30
2022-12-14T07:47:34.631Z,43.20
2022-12-14T07:48:37.638Z,43.20
2022-12-14T07:49:40.022Z,43.10
2022-12-14T07:50:42.377Z,43.10
2022-12-14T07:51:45.838Z,43.00
2022-12-14T07:52:48.129Z,43.00
2022-12-14T07:53:51.534Z,43.00
2022-12-14T07:54:53.883Z,43.00
2022-12-14T07:55:56.219Z,43.00
2022-12-14T07:56:58.592Z,42.90
2022-12-14T07:58:00.915Z,42.80
2022-12-14T07:59:04.772Z,42.80
2022-12-14T08:00:07.691Z,42.70
2022-12-14T08:01:15.203Z,42.80
2022-12-14T08:02:17.689Z,42.70
2022-12-14T08:03:20.152Z,42.70
2022-12-14T08:04:22.582Z,42.70
2022-12-14T08:05:24.959Z,42.60
2022-12-14T08:06:29.666Z,42.60
2022-12-14T08:07:32.019Z,42.70
2022-12-14T08:08:34.710Z,42.70
2022-12-14T08:09:37.153Z,42.70
2022-12-14T08:10:40.587Z,42.70
2022-12-14T08:11:43.028Z,42.70
2022-12-14T08:12:45.279Z,42.70
2022-12-14T08:13:47.889Z,42.60
2022-12-14T08:14:50.205Z,42.60
2022-12-14T08:15:52.539Z,42.60
2022-12-14T08:16:54.862Z,42.60
2022-12-14T08:17:57.243Z,42.70
2022-12-14T08:19:00.942Z,42.80
2022-12-14T08:20:04.102Z,41.70
2022-12-14T08:21:08.252Z,40.80
2022-12-14T08:22:11.534Z,41.00
2022-12-14T08:23:13.855Z,41.40
2022-12-14T08:24:17.071Z,41.80
2022-12-14T08:25:19.706Z,42.00
2022-12-14T08:26:24.040Z,42.20
2022-12-14T08:27:27.164Z,42.60
2022-12-14T08:28:31.154Z,42.70
2022-12-14T08:29:33.675Z,43.00
2022-12-14T08:30:40.245Z,43.10
2022-12-14T08:31:42.643Z,43.10
2022-12-14T08:32:44.978Z,43.10
2022-12-14T08:33:48.243Z,43.20
2022-12-14T08:34:50.668Z,43.20
2022-12-14T08:35:52.897Z,43.20
2022-12-14T08:36:55.254Z,43.20
2022-12-14T08:37:57.510Z,43.20
2022-12-14T08:39:02.908Z,43.20
2022-12-14T08:40:06.015Z,43.70
2022-12-14T08:41:10.605Z,43.20
2022-12-14T08:42:12.887Z,43.30
2022-12-14T08:43:16.444Z,43.30
2022-12-14T08:44:21.462Z,43.30
2022-12-14T08:45:23.769Z,43.30
2022-12-14T08:46:28.163Z,43.30
2022-12-14T08:47:30.532Z,43.30
2022-12-14T08:48:33.084Z,43.20
2022-12-14T08:49:35.539Z,43.30
2022-12-14T08:50:37.771Z,43.30
2022-12-14T08:51:40.029Z,43.30
2022-12-14T08:52:42.360Z,43.30
2022-12-14T08:53:47.639Z,43.40
2022-12-14T08:54:49.954Z,43.40
2022-12-14T08:55:52.245Z,43.30
2022-12-14T08:56:54.583Z,43.30
2022-12-14T08:57:56.939Z,43.30
2022-12-14T08:58:59.256Z,43.30
2022-12-14T09:00:02.705Z,43.20
2022-12-14T09:01:08.949Z,43.20
2022-12-14T09:02:11.410Z,43.20
2022-12-14T09:03:13.900Z,43.20
2022-12-14T09:04:16.253Z,43.20
2022-12-14T09:05:18.701Z,43.20
2022-12-14T09:06:26.442Z,43.20
2022-12-14T09:07:29.450Z,43.20
2022-12-14T09:08:32.715Z,43.30
2022-12-14T09:09:37.197Z,43.30
2022-12-14T09:10:39.499Z,43.30
2022-12-14T09:11:41.908Z,43.30
2022-12-14T09:12:44.251Z,43.30
2022-12-14T09:13:46.955Z,43.30
2022-12-14T09:14:50.226Z,43.30
2022-12-14T09:16:04.651Z,43.30
2022-12-14T09:17:07.457Z,43.40
2022-12-14T09:18:09.804Z,43.40
2022-12-14T09:19:12.681Z,43.40
2022-12-14T09:20:15.042Z,43.40
2022-12-14T09:21:18.066Z,43.50
2022-12-14T09:22:21.563Z,43.60
2022-12-14T09:23:25.565Z,43.50
2022-12-14T09:24:28.386Z,43.60
2022-12-14T09:25:30.680Z,43.60
2022-12-14T09:26:33.787Z,43.50
2022-12-14T09:27:36.370Z,43.60
2022-12-14T09:28:40.659Z,43.60
2022-12-14T09:29:43.525Z,43.60
2022-12-14T09:30:46.136Z,43.60
2022-12-14T09:31:48.656Z,43.60
2022-12-14T09:32:50.992Z,43.50
2022-12-14T09:33:54.800Z,43.50
2022-12-14T09:34:59.456Z,43.50
2022-12-14T09:36:07.026Z,43.50
2022-12-14T09:37:09.456Z,43.50
2022-12-14T09:38:11.785Z,43.50
2022-12-14T09:39:15.033Z,43.50
2022-12-14T09:40:17.757Z,43.50
2022-12-14T09:41:27.938Z,43.50
2022-12-14T09:42:52.977Z,43.50
2022-12-14T09:44:18.083Z,43.50
2022-12-14T09:45:32.762Z,43.50
2022-12-14T09:46:38.015Z,43.50
2022-12-14T09:48:07.351Z,43.50
2022-12-14T09:49:23.855Z,43.50
2022-12-14T09:50:27.127Z,43.40
2022-12-14T09:51:35.143Z,43.40
2022-12-14T09:52:43.061Z,43.40
2022-12-14T09:53:47.874Z,43.40
2022-12-14T09:54:50.490Z,42.90
2022-12-14T09:55:56.359Z,41.50
2022-12-14T09:57:39.147Z,42.30
2022-12-14T09:58:57.173Z,42.10
2022-12-14T09:59:59.486Z,42.50
2022-12-14T10:01:23.296Z,42.60
2022-12-14T10:02:46.443Z,42.50
2022-12-14T10:04:01.707Z,42.50
2022-12-14T10:05:38.780Z,42.60
2022-12-14T10:06:49.858Z,42.10
2022-12-14T10:08:05.482Z,39.40
2022-12-14T10:09:26.524Z,39.20
2022-12-14T10:10:38.964Z,39.40
2022-12-14T10:11:49.999Z,41.70
2022-12-14T10:13:10.947Z,42.10
2022-12-14T10:14:36.325Z,42.30
2022-12-14T10:16:25.125Z,42.40
2022-12-14T10:17:58.718Z,42.90
2022-12-14T10:19:20.017Z,43.00
2022-12-14T10:20:52.151Z,42.60
2022-12-14T10:21:57.448Z,42.90
2022-12-14T10:23:02.106Z,43.00
2022-12-14T10:24:07.349Z,43.20
2022-12-14T10:25:14.679Z,43.20
2022-12-14T10:26:19.909Z,43.20
2022-12-14T10:27:25.093Z,43.20
2022-12-14T10:28:37.335Z,43.20
2022-12-14T10:29:47.623Z,43.30
2022-12-14T10:30:57.032Z,43.10
2022-12-14T10:32:14.032Z,43.30
2022-12-14T10:33:21.881Z,43.30
2022-12-14T10:34:29.590Z,43.30
2022-12-14T10:35:46.730Z,43.40
2022-12-14T10:37:13.816Z,43.10
2022-12-14T10:38:21.893Z,42.80
2022-12-14T10:39:44.367Z,42.50
2022-12-14T10:40:57.823Z,42.50
2022-12-14T10:42:23.606Z,39.90
2022-12-14T10:43:41.048Z,39.60
2022-12-14T10:45:39.829Z,39.80
2022-12-14T10:46:47.128Z,42.00
2022-12-14T10:48:04.360Z,43.30
2022-12-14T10:49:21.498Z,43.50
2022-12-14T10:50:50.080Z,43.60
2022-12-14T10:52:19.884Z,43.60
2022-12-14T10:53:29.087Z,43.00
2022-12-14T10:54:37.272Z,43.00
2022-12-14T10:55:42.382Z,43.00
2022-12-14T10:56:49.861Z,43.00
2022-12-14T10:57:52.632Z,43.00
2022-12-14T10:59:21.208Z,43.10
2022-12-14T11:00:23.981Z,43.00
2022-12-14T11:01:27.628Z,43.10
2022-12-14T11:02:33.896Z,43.30
2022-12-14T11:03:36.751Z,43.20
2022-12-14T11:04:44.861Z,43.30
2022-12-14T11:06:04.537Z,43.20
2022-12-14T11:07:09.873Z,43.80
2022-12-14T11:08:42.669Z,43.20
2022-12-14T11:09:45.328Z,43.30
2022-12-14T11:10:48.405Z,43.20
2022-12-14T11:12:03.294Z,43.20
2022-12-14T11:13:18.027Z,43.20
2022-12-14T11:14:23.051Z,43.20
2022-12-14T11:15:46.445Z,42.80
2022-12-14T11:16:49.203Z,43.00
2022-12-14T11:18:02.447Z,43.60
2022-12-14T11:19:14.683Z,43.30
2022-12-14T11:20:25.247Z,43.20
2022-12-14T11:21:37.196Z,43.10
2022-12-14T11:22:51.301Z,42.80
2022-12-14T11:23:54.886Z,42.70
2022-12-14T11:24:58.024Z,42.50
2022-12-14T11:26:03.741Z,42.30
2022-12-14T11:27:09.390Z,42.20
2022-12-14T11:28:22.181Z,42.00
2022-12-14T11:29:39.327Z,42.10
2022-12-14T11:31:05.340Z,42.30
2022-12-14T11:32:20.798Z,42.80
2022-12-14T11:33:26.552Z,42.90
2022-12-14T11:34:37.766Z,41.10
2022-12-14T11:35:52.536Z,39.70
2022-12-14T11:36:54.962Z,39.90
2022-12-14T11:38:00.396Z,40.30
2022-12-14T11:39:14.702Z,40.40
2022-12-14T11:40:23.936Z,40.50
2022-12-14T11:41:38.339Z,41.20
2022-12-14T11:42:49.210Z,43.20
2022-12-14T11:44:22.625Z,43.00
2022-12-14T11:45:31.365Z,43.10
2022-12-14T11:46:46.555Z,43.40
2022-12-14T11:48:14.851Z,43.60
2022-12-14T11:49:30.180Z,43.70
2022-12-14T11:50:32.484Z,43.80
2022-12-14T11:51:34.889Z,43.70
2022-12-14T11:52:37.168Z,43.70
2022-12-14T11:53:40.621Z,43.70
2022-12-14T11:54:50.031Z,43.70
2022-12-14T11:55:58.606Z,43.60
2022-12-14T11:57:12.986Z,43.70
2022-12-14T11:58:19.996Z,43.70
2022-12-14T11:59:25.231Z,43.70
2022-12-14T12:00:50.629Z,43.70
2022-12-14T12:01:55.499Z,43.70
2022-12-14T12:03:27.585Z,43.70
2022-12-14T12:04:30.110Z,43.70
2022-12-14T12:05:34.574Z,43.60
2022-12-14T12:06:37.096Z,43.60
2022-12-14T12:07:55.956Z,43.70
2022-12-14T12:09:10.768Z,43.70
2022-12-14T12:10:13.026Z,43.70
2022-12-14T12:11:19.245Z,43.70
2022-12-14T12:12:23.279Z,43.70
2022-12-14T12:13:40.698Z,43.70
2022-12-14T12:14:44.964Z,43.50
2022-12-14T12:15:55.780Z,39.60
2022-12-14T12:16:58.784Z,39.10
2022-12-14T12:18:16.148Z,39.30
2022-12-14T12:19:35.887Z,39.10
2022-12-14T12:20:44.322Z,42.70
2022-12-14T12:21:47.342Z,44.10
2022-12-14T12:22:53.326Z,44.10
2022-12-14T12:24:22.556Z,44.30
2022-12-14T12:25:33.536Z,44.30
2022-12-14T12:26:56.188Z,44.30
2022-12-14T12:28:04.664Z,44.30
2022-12-14T12:29:19.629Z,44.30
2022-12-14T12:30:28.639Z,44.20
2022-12-14T12:31:43.493Z,44.20
2022-12-14T12:32:52.744Z,44.10
2022-12-14T12:34:00.465Z,44.10
2022-12-14T12:35:23.068Z,44.10
2022-12-14T12:36:25.719Z,44.10
2022-12-14T12:37:36.844Z,44.10
2022-12-14T12:39:05.518Z,44.00
2022-12-14T12:40:34.321Z,44.10
2022-12-14T12:41:46.364Z,44.00
2022-12-14T12:42:57.049Z,43.90
2022-12-14T12:44:05.198Z,43.90
2022-12-14T12:45:30.114Z,44.00
2022-12-14T12:47:14.858Z,43.70
2022-12-14T12:48:18.027Z,43.50
2022-12-14T12:49:20.865Z,39.90
2022-12-14T12:50:29.486Z,39.70
2022-12-14T12:51:41.128Z,39.80
2022-12-14T12:53:04.373Z,42.10
2022-12-14T12:54:11.685Z,43.70
2022-12-14T12:55:23.704Z,43.60
2022-12-14T12:56:39.791Z,44.10
2022-12-14T12:57:46.888Z,44.10
2022-12-14T12:58:53.106Z,44.10
2022-12-14T12:59:57.651Z,44.10
2022-12-14T13:01:05.117Z,44.10
2022-12-14T13:02:18.767Z,44.10
2022-12-14T13:03:37.541Z,44.10
2022-12-14T13:04:47.777Z,44.00
2022-12-14T13:05:57.499Z,44.10
2022-12-14T13:07:05.144Z,44.10
2022-12-14T13:08:32.648Z,44.10
2022-12-14T13:09:50.762Z,44.10
2022-12-14T13:12:38.438Z,44.00
2022-12-14T13:13:45.197Z,44.00
2022-12-14T13:14:49.916Z,44.10
2022-12-14T13:16:36.779Z,44.00
2022-12-14T13:17:45.464Z,44.00
2022-12-14T13:19:04.904Z,44.10
2022-12-14T13:20:22.718Z,44.10
2022-12-14T13:21:34.979Z,44.10
2022-12-14T13:22:38.597Z,44.10
2022-12-14T13:23:45.543Z,44.10
2022-12-14T13:24:57.008Z,44.10
2022-12-14T13:26:07.729Z,44.10
2022-12-14T13:27:47.439Z,44.00
2022-12-14T13:29:01.833Z,44.50
2022-12-14T13:30:31.321Z,44.10
2022-12-14T13:32:12.144Z,44.10
2022-12-14T13:33:42.473Z,44.10
2022-12-14T13:35:15.298Z,44.00
2022-12-14T13:37:01.261Z,44.00
2022-12-14T13:38:42.174Z,44.00
2022-12-14T13:40:31.770Z,43.90
2022-12-14T13:41:55.512Z,44.00
2022-12-14T13:43:05.639Z,43.90
2022-12-14T13:44:26.935Z,43.90
2022-12-14T13:45:42.564Z,43.90
2022-12-14T13:46:45.151Z,43.90
2022-12-14T13:47:55.356Z,44.40
2022-12-14T13:49:05.320Z,44.10
2022-12-14T13:50:41.925Z,43.50
2022-12-14T13:51:50.842Z,43.50
2022-12-14T13:53:01.047Z,43.60
2022-12-14T13:54:06.441Z,43.20
2022-12-14T13:55:30.597Z,43.40
2022-12-14T13:56:39.494Z,41.40
2022-12-14T13:57:42.733Z,40.20
2022-12-14T13:58:48.107Z,40.10
2022-12-14T13:59:53.047Z,37.90
2022-12-14T14:00:58.789Z,41.20
2022-12-14T14:02:02.636Z,42.50
2022-12-14T14:03:05.175Z,43.50
2022-12-14T14:04:10.489Z,43.80
2022-12-14T14:05:16.262Z,43.90
2022-12-14T14:06:29.136Z,44.10
2022-12-14T14:07:31.406Z,44.00
2022-12-14T14:08:41.499Z,43.90
2022-12-14T14:09:56.549Z,44.00
2022-12-14T14:11:36.574Z,44.00
2022-12-14T14:12:43.225Z,43.80
2022-12-14T14:13:45.495Z,43.50
2022-12-14T14:14:56.054Z,43.40
2022-12-14T14:16:27.376Z,43.30
2022-12-14T14:17:41.366Z,43.10
2022-12-14T14:19:19.650Z,43.10
2022-12-14T14:20:36.570Z,43.20
2022-12-14T14:22:14.363Z,43.20
2022-12-14T14:23:18.687Z,43.20
2022-12-14T14:24:22.181Z,43.30
2022-12-14T14:25:33.411Z,43.10
2022-12-14T14:26:36.582Z,43.10
2022-12-14T14:27:41.990Z,43.20
2022-12-14T14:28:49.654Z,43.30
2022-12-14T14:29:53.035Z,43.10
2022-12-14T14:30:58.331Z,43.30
2022-12-14T14:32:03.666Z,43.30
2022-12-14T14:33:47.860Z,43.60
2022-12-14T14:34:51.798Z,43.30
2022-12-14T14:36:16.339Z,43.40
2022-12-14T14:37:21.352Z,43.30
2022-12-14T14:38:28.758Z,43.50
2022-12-14T14:41:16.583Z,43.40
2022-12-14T14:42:23.181Z,43.30
2022-12-14T14:43:31.233Z,43.50
2022-12-14T14:44:35.778Z,43.50
2022-12-14T14:45:47.961Z,43.60
2022-12-14T14:46:51.044Z,43.60
2022-12-14T14:47:56.918Z,43.60
2022-12-14T14:49:00.067Z,43.40
2022-12-14T14:50:07.329Z,43.50
2022-12-14T14:51:28.908Z,43.40
2022-12-14T14:52:45.863Z,43.40
2022-12-14T14:53:50.286Z,43.60
2022-12-14T14:55:27.780Z,43.50
2022-12-14T14:56:29.796Z,43.40
2022-12-14T14:57:56.100Z,43.60